Time;durP1;ratioP1;P1;durP2;ratioP2;P2;SDS_P1;SDS_P2;PMS_P1;PMS_P2;Temp;Humidity;BMP_temperature;BMP_pressure;BME280_temperature;BME280_humidity;BME280_pressure;Samples;Min_cycle;Max_cycle;Signal;HPM_P1;HPM_P2
2021/03/02 00:02:04;;;;;;;31.05;20.83;;;3.50;99.90;;;;;;5046767;28;20208;-80
2021/03/02 00:04:32;;;;;;;33.08;22.42;;;3.50;99.90;;;;;;5043214;28;20202;-80
2021/03/02 00:06:59;;;;;;;26.75;18.70;;;3.50;99.90;;;;;;5044503;28;20216;-79
2021/03/02 00:09:26;;;;;;;29.65;21.30;;;3.50;99.90;;;;;;5046404;28;20191;-79
2021/03/02 00:11:54;;;;;;;28.23;18.88;;;3.40;99.90;;;;;;5041510;28;20220;-81
2021/03/02 00:14:21;;;;;;;26.17;18.85;;;3.40;99.90;;;;;;5042885;28;20203;-81
2021/03/02 00:16:56;;;;;;;36.92;24.02;;;3.40;99.90;;;;;;5051012;28;20199;-81
2021/03/02 00:19:28;;;;;;;33.97;20.92;;;3.40;99.90;;;;;;5040544;28;20203;-79
2021/03/02 00:22:02;;;;;;;29.20;20.75;;;3.40;99.90;;;;;;5053233;28;20219;-79
2021/03/02 00:24:32;;;;;;;28.00;20.00;;;3.40;99.90;;;;;;5042865;28;20203;-81
2021/03/02 00:26:59;;;;;;;38.47;22.00;;;3.40;99.90;;;;;;5050513;28;20259;-78
2021/03/02 00:29:27;;;;;;;29.35;19.05;;;3.40;99.90;;;;;;5046882;28;20215;-80
2021/03/02 00:31:55;;;;;;;33.05;21.55;;;3.40;99.90;;;;;;5039995;28;20220;-80
2021/03/02 00:34:21;;;;;;;37.05;24.27;;;3.40;99.90;;;;;;5045504;28;20208;-80
2021/03/02 00:36:48;;;;;;;36.55;20.50;;;3.30;99.90;;;;;;5043332;28;20650;-80
2021/03/02 00:39:15;;;;;;;33.22;23.05;;;3.30;99.90;;;;;;5041904;28;20203;-82
2021/03/02 00:41:43;;;;;;;41.53;22.77;;;3.20;99.90;;;;;;5048072;28;20665;-80
2021/03/02 00:44:09;;;;;;;43.85;25.77;;;3.20;99.90;;;;;;5039944;28;20204;-80
2021/03/02 00:46:36;;;;;;;39.33;26.25;;;3.10;99.90;;;;;;5047681;28;20203;-79
2021/03/02 00:49:03;;;;;;;46.72;27.70;;;3.10;99.90;;;;;;5044341;28;20229;-81
2021/03/02 00:51:29;;;;;;;41.95;25.38;;;3.00;99.90;;;;;;5051143;28;20220;-79
2021/03/02 00:53:56;;;;;;;45.50;27.27;;;2.90;99.90;;;;;;5050845;28;20208;-79
2021/03/02 00:56:23;;;;;;;33.85;21.10;;;2.90;99.90;;;;;;5039316;28;20581;-80
2021/03/02 00:58:50;;;;;;;37.33;23.00;;;2.90;99.90;;;;;;5041604;28;20232;-82
2021/03/02 01:01:16;;;;;;;36.72;22.30;;;2.90;99.90;;;;;;5051289;28;20195;-79
2021/03/02 01:03:44;;;;;;;35.65;23.92;;;2.90;99.90;;;;;;5048450;28;20215;-80
2021/03/02 01:06:10;;;;;;;30.25;21.55;;;2.90;99.90;;;;;;5052232;28;20208;-81
2021/03/02 01:08:37;;;;;;;36.75;21.33;;;2.90;99.90;;;;;;5044614;28;20222;-78
2021/03/02 01:11:04;;;;;;;34.88;22.25;;;2.90;99.90;;;;;;5043032;28;20720;-81
2021/03/02 01:13:31;;;;;;;42.25;23.70;;;2.80;99.90;;;;;;5049636;28;20797;-79
2021/03/02 01:15:58;;;;;;;38.08;23.50;;;3.00;99.90;;;;;;5046555;28;20553;-78
2021/03/02 01:18:24;;;;;;;28.77;19.60;;;2.90;99.90;;;;;;5029466;28;20224;-79
2021/03/02 01:20:51;;;;;;;32.67;23.58;;;2.90;99.90;;;;;;5054830;28;20265;-80
2021/03/02 01:23:18;;;;;;;28.45;18.88;;;2.90;99.90;;;;;;5039242;28;20219;-81
2021/03/02 01:25:45;;;;;;;36.95;24.08;;;2.90;99.90;;;;;;5042912;28;20219;-80
2021/03/02 01:28:11;;;;;;;32.85;22.08;;;2.90;99.90;;;;;;5046121;28;20681;-80
2021/03/02 01:30:39;;;;;;;38.75;21.85;;;2.90;99.90;;;;;;5038437;28;20212;-81
2021/03/02 01:33:06;;;;;;;28.65;18.92;;;3.00;99.90;;;;;;5052596;28;20204;-80
2021/03/02 01:35:32;;;;;;;35.50;21.73;;;3.00;99.90;;;;;;5050179;28;20234;-80
2021/03/02 01:37:59;;;;;;;30.27;19.98;;;3.00;99.90;;;;;;5051940;28;20231;-81
2021/03/02 01:40:26;;;;;;;30.63;22.13;;;2.90;99.90;;;;;;5042376;28;20207;-79
2021/03/02 01:42:52;;;;;;;35.20;21.63;;;2.90;99.90;;;;;;5047534;28;20208;-77
2021/03/02 01:45:20;;;;;;;29.80;20.00;;;3.00;99.90;;;;;;5063373;28;20199;-80
2021/03/02 01:47:49;;;;;;;31.40;21.35;;;3.00;99.90;;;;;;5068716;28;20261;-80
2021/03/02 01:50:16;;;;;;;52.38;25.23;;;3.00;99.90;;;;;;5061450;28;20228;-79
2021/03/02 01:52:43;;;;;;;39.92;21.20;;;2.90;99.90;;;;;;5040719;28;20203;-80
2021/03/02 01:55:10;;;;;;;35.90;23.83;;;2.90;99.90;;;;;;5054392;28;20203;-80
2021/03/02 01:57:37;;;;;;;38.75;22.90;;;2.90;99.90;;;;;;5047820;28;20200;-79
2021/03/02 02:00:11;;;;;;;47.15;25.35;;;2.90;99.90;;;;;;5046686;28;20197;-79
2021/03/02 02:02:43;;;;;;;35.33;22.67;;;2.90;99.90;;;;;;5034821;28;20262;-78
2021/03/02 02:05:14;;;;;;;30.05;20.70;;;2.90;99.90;;;;;;5055891;28;20339;-79
2021/03/02 02:07:43;;;;;;;27.42;20.27;;;2.80;99.90;;;;;;5050866;28;20226;-79
2021/03/02 02:10:15;;;;;;;30.88;19.42;;;2.90;99.90;;;;;;5046334;28;20204;-79
2021/03/02 02:12:47;;;;;;;28.25;19.05;;;2.90;99.90;;;;;;5042055;28;20211;-79
2021/03/02 02:15:18;;;;;;;32.53;23.70;;;2.90;99.90;;;;;;5044891;28;20275;-79
2021/03/02 02:17:50;;;;;;;35.55;22.90;;;2.90;99.90;;;;;;5049034;28;20220;-78
2021/03/02 02:20:31;;;;;;;31.38;21.88;;;2.90;99.90;;;;;;5039323;28;20212;-80
2021/03/02 02:23:16;;;;;;;37.53;20.70;;;3.00;99.90;;;;;;5052056;28;20204;-80
2021/03/02 02:25:49;;;;;;;23.92;17.75;;;3.00;99.90;;;;;;5048532;28;20209;-81
2021/03/02 02:28:18;;;;;;;30.17;20.40;;;3.00;99.90;;;;;;5053821;28;20238;-80
2021/03/02 02:30:47;;;;;;;39.60;24.13;;;3.00;99.90;;;;;;5057984;28;20323;-80
2021/03/02 02:33:18;;;;;;;33.53;23.20;;;2.90;99.90;;;;;;5068478;28;20206;-81
2021/03/02 02:35:49;;;;;;;32.20;19.60;;;2.90;99.90;;;;;;5048381;28;20200;-79
2021/03/02 02:38:19;;;;;;;31.02;21.05;;;2.90;99.90;;;;;;5042279;28;20220;-79
2021/03/02 02:40:49;;;;;;;36.42;23.52;;;2.80;99.90;;;;;;5043312;28;20200;-80
2021/03/02 02:43:19;;;;;;;31.67;20.73;;;2.70;99.90;;;;;;5050254;28;20219;-79
2021/03/02 02:45:47;;;;;;;32.85;21.05;;;2.70;99.90;;;;;;5041993;28;20540;-80
2021/03/02 02:48:15;;;;;;;31.80;22.00;;;2.70;99.90;;;;;;5043891;28;20230;-79
2021/03/02 02:50:43;;;;;;;37.45;21.15;;;2.60;99.90;;;;;;5051807;28;20267;-78
2021/03/02 02:53:10;;;;;;;28.92;19.33;;;2.60;99.90;;;;;;5052123;28;20208;-79
2021/03/02 02:55:44;;;;;;;30.63;19.50;;;2.60;99.90;;;;;;5040548;28;20200;-79
2021/03/02 02:58:15;;;;;;;31.50;20.55;;;2.60;99.90;;;;;;5051101;28;20231;-80
2021/03/02 03:00:50;;;;;;;24.77;19.13;;;2.60;99.90;;;;;;5052100;28;20208;-78
2021/03/02 03:03:19;;;;;;;25.50;19.83;;;2.60;99.90;;;;;;5046586;28;20207;-80
2021/03/02 03:05:52;;;;;;;28.83;20.20;;;2.60;99.90;;;;;;5053326;28;20817;-80
2021/03/02 03:08:25;;;;;;;32.85;21.02;;;2.60;99.90;;;;;;5038808;28;20220;-80
2021/03/02 03:10:55;;;;;;;27.95;19.70;;;2.60;99.90;;;;;;5040637;28;20228;-79
2021/03/02 03:13:25;;;;;;;33.05;20.60;;;2.60;99.90;;;;;;5035226;28;20211;-80
2021/03/02 03:15:56;;;;;;;28.13;18.20;;;2.60;99.90;;;;;;5052198;28;20211;-79
2021/03/02 03:18:26;;;;;;;29.85;20.00;;;2.60;99.90;;;;;;5045217;28;20252;-80
2021/03/02 03:20:56;;;;;;;27.73;17.92;;;2.60;99.90;;;;;;5044991;28;20299;-79
2021/03/02 03:23:23;;;;;;;33.90;21.67;;;2.60;99.90;;;;;;5040076;28;20292;-79
2021/03/02 03:25:50;;;;;;;39.63;24.00;;;2.60;99.90;;;;;;5045436;28;20204;-80
2021/03/02 03:28:18;;;;;;;31.95;20.85;;;2.60;99.90;;;;;;5044956;28;20231;-77
2021/03/02 03:30:45;;;;;;;33.05;21.85;;;2.60;99.90;;;;;;5044290;28;20227;-78
2021/03/02 03:33:15;;;;;;;28.10;19.67;;;2.60;99.90;;;;;;5048725;28;20231;-79
2021/03/02 03:35:42;;;;;;;28.50;17.90;;;2.60;99.90;;;;;;5060449;28;20200;-79
2021/03/02 03:38:09;;;;;;;37.13;21.67;;;2.60;99.90;;;;;;5061147;28;20223;-79
2021/03/02 03:40:37;;;;;;;33.95;19.08;;;2.60;99.90;;;;;;5049695;28;20215;-79
2021/03/02 03:43:04;;;;;;;30.67;19.95;;;2.60;99.90;;;;;;5064614;28;20218;-79
2021/03/02 03:45:30;;;;;;;29.63;18.63;;;2.60;99.90;;;;;;5052565;28;20208;-79
2021/03/02 03:47:58;;;;;;;31.95;22.63;;;2.60;99.90;;;;;;5057402;28;20229;-79
2021/03/02 03:50:25;;;;;;;29.63;22.60;;;2.60;99.90;;;;;;5051228;28;20549;-79
2021/03/02 03:52:55;;;;;;;27.45;18.63;;;2.50;99.90;;;;;;5052399;28;20215;-78
2021/03/02 03:55:28;;;;;;;29.65;20.02;;;2.50;99.90;;;;;;5046252;28;20208;-79
2021/03/02 03:57:55;;;;;;;33.30;20.15;;;2.50;99.90;;;;;;5049491;28;20228;-78
2021/03/02 04:00:23;;;;;;;32.53;20.48;;;2.40;99.90;;;;;;5050124;28;20200;-78
2021/03/02 04:02:51;;;;;;;23.67;17.42;;;2.40;99.90;;;;;;5058072;28;20207;-79
2021/03/02 04:05:19;;;;;;;29.42;19.83;;;2.50;99.90;;;;;;5047353;28;20200;-77
2021/03/02 04:07:47;;;;;;;34.75;22.27;;;2.40;99.90;;;;;;5051539;28;20244;-78
2021/03/02 04:10:16;;;;;;;30.80;19.63;;;2.50;99.90;;;;;;5046910;28;20223;-79
2021/03/02 04:12:44;;;;;;;29.77;20.67;;;2.40;99.90;;;;;;5053263;28;20204;-79
2021/03/02 04:15:12;;;;;;;27.30;20.08;;;2.40;99.90;;;;;;5048811;28;20208;-79
2021/03/02 04:17:39;;;;;;;32.80;23.58;;;2.40;99.90;;;;;;5047348;28;20723;-79
2021/03/02 04:20:07;;;;;;;29.30;20.10;;;2.40;99.90;;;;;;5046635;28;20216;-79
2021/03/02 04:22:36;;;;;;;28.55;18.40;;;2.40;99.90;;;;;;5046965;28;20578;-79
2021/03/02 04:25:05;;;;;;;36.08;23.45;;;2.30;99.90;;;;;;5044966;28;20211;-78
2021/03/02 04:27:34;;;;;;;28.25;18.83;;;2.30;99.90;;;;;;5044293;28;20224;-79
2021/03/02 04:30:01;;;;;;;35.50;21.73;;;2.30;99.90;;;;;;5044678;28;20234;-79
2021/03/02 04:32:27;;;;;;;35.30;21.00;;;2.30;99.90;;;;;;5042803;28;20228;-80
2021/03/02 04:34:54;;;;;;;29.42;18.77;;;2.30;99.90;;;;;;5042637;28;20200;-79
2021/03/02 04:37:21;;;;;;;31.92;21.88;;;2.30;99.90;;;;;;5051925;28;20220;-80
2021/03/02 04:46:37;;;;;;;28.95;18.65;;;2.40;99.90;;;;;;5465331;22;20222;-79
2021/03/02 04:59:58;;;;;;;34.75;20.02;;;2.30;99.90;;;;;;4982082;28;20211;-81
2021/03/02 05:23:33;;;;;;;31.90;21.73;;;2.00;99.90;;;;;;4869584;29;20217;-80
2021/03/02 05:26:29;;;;;;;39.30;25.75;;;1.90;99.90;;;;;;4874896;29;20217;-79
2021/03/02 05:36:24;;;;;;;35.90;23.10;;;1.90;99.90;;;;;;4853677;29;20209;-79
2021/03/02 05:39:44;;;;;;;32.30;22.23;;;1.90;99.90;;;;;;4870783;29;20328;-79
2021/03/02 05:42:10;;;;;;;35.03;22.60;;;2.00;99.90;;;;;;4922280;29;20219;-78
2021/03/02 05:44:54;;;;;;;26.88;20.17;;;2.00;99.90;;;;;;5007176;28;20229;-78
2021/03/02 05:47:35;;;;;;;26.85;19.83;;;2.00;99.90;;;;;;5064910;28;20247;-79
2021/03/02 05:50:03;;;;;;;33.22;22.77;;;2.00;99.90;;;;;;5073073;28;20241;-77
2021/03/02 05:52:30;;;;;;;40.85;24.88;;;2.00;99.90;;;;;;5075863;28;20211;-79
2021/03/02 05:54:59;;;;;;;34.97;20.73;;;1.90;99.90;;;;;;5068191;28;20207;-79
2021/03/02 05:57:43;;;;;;;;;;;;;;;;;;;;;
2021/03/02 06:00:12;;;;;;;36.55;22.63;;;1.90;99.90;;;;;;5071918;28;20231;-78
2021/03/02 06:02:38;;;;;;;36.58;24.65;;;1.90;99.90;;;;;;5071124;28;20204;-79
2021/03/02 06:06:01;;;;;;;;;;;;;;;;;;;;;
2021/03/02 06:08:53;;;;;;;35.42;22.70;;;1.80;99.90;;;;;;5050374;28;20247;-81
2021/03/02 06:11:24;;;;;;;35.10;20.95;;;1.80;99.90;;;;;;5065432;28;20233;-79
2021/03/02 06:13:51;;;;;;;37.40;22.50;;;1.90;99.90;;;;;;5060927;28;20212;-80
2021/03/02 06:16:24;;;;;;;29.52;19.52;;;1.90;99.90;;;;;;5063485;28;20319;-79
2021/03/02 06:25:50;;;;;;;32.33;20.95;;;1.90;99.90;;;;;;4977436;28;20285;-85
2021/03/02 06:38:06;;;;;;;27.45;20.05;;;2.20;99.90;;;;;;4958102;28;20315;-84
2021/03/02 06:40:38;;;;;;;28.05;20.17;;;2.10;99.90;;;;;;5049459;28;20219;-83
2021/03/02 06:43:43;;;;;;;29.50;20.55;;;2.30;99.90;;;;;;5065530;28;20247;-87
2021/03/02 06:46:12;;;;;;;28.65;20.05;;;2.40;99.90;;;;;;5023053;28;20283;-85
2021/03/02 06:49:07;;;;;;;23.95;17.50;;;2.50;99.90;;;;;;5074168;28;20253;-83
2021/03/02 06:54:31;;;;;;;25.73;20.65;;;2.60;99.90;;;;;;5089017;28;20227;-83
2021/03/02 06:57:03;;;;;;;25.38;19.00;;;2.50;99.90;;;;;;5085952;28;20202;-82
2021/03/02 06:59:42;;;;;;;26.17;16.98;;;2.60;99.90;;;;;;5079715;28;20229;-83
2021/03/02 07:02:12;;;;;;;23.15;16.45;;;2.90;99.90;;;;;;5074273;28;20209;-83
2021/03/02 07:04:39;;;;;;;29.08;20.77;;;3.10;99.90;;;;;;5088725;28;20271;-81
2021/03/02 07:07:17;;;;;;;27.30;19.90;;;3.40;99.90;;;;;;5078752;28;20282;-81
2021/03/02 07:09:44;;;;;;;23.60;17.30;;;3.70;99.90;;;;;;5077874;28;20214;-81
2021/03/02 07:12:15;;;;;;;28.95;18.50;;;4.10;99.90;;;;;;5077428;28;20243;-81
2021/03/02 07:14:41;;;;;;;22.98;17.27;;;4.80;99.90;;;;;;5077077;28;20229;-81
2021/03/02 07:19:54;;;;;;;24.30;17.17;;;6.70;99.90;;;;;;5064702;28;20213;-82
2021/03/02 07:22:47;;;;;;;24.50;16.65;;;7.20;99.90;;;;;;5069316;28;20292;-83
2021/03/02 07:25:24;;;;;;;21.48;14.20;;;7.80;99.90;;;;;;5082829;28;20206;-83
2021/03/02 07:27:53;;;;;;;19.13;15.50;;;7.90;99.90;;;;;;5080597;28;20241;-82
2021/03/02 07:30:41;;;;;;;19.02;15.55;;;8.50;99.90;;;;;;5080368;28;20204;-81
2021/03/02 07:36:43;;;;;;;19.77;16.15;;;10.00;98.90;;;;;;5064063;28;20225;-82
2021/03/02 07:40:21;;;;;;;20.85;16.17;;;10.00;97.50;;;;;;5078196;28;20263;-83
2021/03/02 07:49:45;;;;;;;20.85;17.27;;;11.70;93.10;;;;;;5045908;28;20250;-81
2021/03/02 07:59:22;;;;;;;25.65;18.58;;;12.50;91.70;;;;;;5069253;28;20217;-84
2021/03/02 08:02:26;;;;;;;21.85;17.70;;;13.00;90.60;;;;;;5069821;28;20196;-82
2021/03/02 08:05:31;;;;;;;22.40;18.17;;;13.80;89.70;;;;;;5062626;28;20245;-84
2021/03/02 08:08:33;;;;;;;23.60;18.45;;;14.00;88.10;;;;;;5074077;28;20238;-84
2021/03/02 08:11:56;;;;;;;27.23;20.25;;;14.20;86.40;;;;;;5066319;28;20220;-82
2021/03/02 08:14:34;;;;;;;27.67;18.60;;;14.60;85.10;;;;;;5069056;28;20231;-84
2021/03/02 08:17:14;;;;;;;21.60;18.98;;;14.80;84.40;;;;;;5074750;28;20258;-85
2021/03/02 08:19:46;;;;;;;25.30;20.30;;;15.00;83.60;;;;;;5073284;28;20211;-81
2021/03/02 08:22:53;;;;;;;27.17;19.67;;;15.00;82.80;;;;;;5074830;28;20238;-83
2021/03/02 08:25:44;;;;;;;24.88;20.17;;;14.90;82.60;;;;;;5084816;28;20197;-83
2021/03/02 08:28:17;;;;;;;26.95;20.85;;;15.30;81.70;;;;;;5071949;28;20267;-84
2021/03/02 08:30:48;;;;;;;25.02;21.42;;;15.40;80.80;;;;;;5078777;28;20621;-83
2021/03/02 08:33:21;;;;;;;26.63;20.77;;;15.60;80.00;;;;;;5081182;28;20644;-84
2021/03/02 08:36:19;;;;;;;24.88;20.70;;;16.10;79.20;;;;;;5066450;28;20202;-82
2021/03/02 08:39:00;;;;;;;24.92;19.73;;;16.20;78.60;;;;;;5064985;28;20615;-83
2021/03/02 08:44:49;;;;;;;22.30;19.50;;;17.20;75.90;;;;;;5029260;28;20442;-83
2021/03/02 08:47:45;;;;;;;29.13;21.43;;;18.00;72.90;;;;;;5076099;28;20468;-83
2021/03/02 08:50:12;;;;;;;22.30;19.10;;;17.70;71.90;;;;;;5076150;28;20858;-81
2021/03/02 08:52:50;;;;;;;23.27;19.50;;;17.70;72.10;;;;;;5064756;28;20508;-83
2021/03/02 08:55:36;;;;;;;29.07;21.80;;;18.20;72.60;;;;;;5070968;28;20811;-82
2021/03/02 08:58:23;;;;;;;27.87;21.33;;;19.00;69.50;;;;;;5064975;28;20471;-82
2021/03/02 09:01:22;;;;;;;21.63;18.57;;;18.00;69.30;;;;;;5071956;28;20454;-84
2021/03/02 09:04:24;;;;;;;27.60;22.07;;;17.10;71.80;;;;;;5060291;28;20442;-84
2021/03/02 09:06:52;;;;;;;25.30;19.47;;;16.50;72.60;;;;;;5069425;28;20436;-83
2021/03/02 09:09:31;;;;;;;27.93;22.10;;;15.80;74.40;;;;;;5073375;28;20450;-83
2021/03/02 09:12:05;;;;;;;24.60;20.73;;;15.50;74.30;;;;;;5077694;28;20498;-83
2021/03/02 09:14:34;;;;;;;26.73;21.57;;;15.20;76.10;;;;;;5065621;28;20197;-83
2021/03/02 09:17:02;;;;;;;28.47;23.20;;;15.40;75.80;;;;;;5071220;28;20464;-84
2021/03/02 09:19:40;;;;;;;33.28;24.92;;;16.00;75.20;;;;;;5072770;28;20449;-83
2021/03/02 09:22:08;;;;;;;26.70;22.70;;;14.90;75.40;;;;;;5070611;28;20208;-85
2021/03/02 09:24:36;;;;;;;26.97;22.13;;;14.40;77.20;;;;;;5069286;28;20202;-82
2021/03/02 09:27:05;;;;;;;28.65;23.58;;;14.90;78.20;;;;;;5061112;28;20447;-82
2021/03/02 09:29:34;;;;;;;33.53;23.40;;;15.00;77.30;;;;;;5068070;28;20203;-80
2021/03/02 09:32:03;;;;;;;28.88;22.33;;;15.00;77.60;;;;;;5068901;28;20262;-81
2021/03/02 09:34:57;;;;;;;24.02;20.88;;;14.20;77.70;;;;;;5071512;28;20195;-83
2021/03/02 09:37:27;;;;;;;26.38;19.55;;;14.50;78.10;;;;;;5070236;28;20215;-81
2021/03/02 09:40:09;;;;;;;22.80;20.08;;;13.40;78.90;;;;;;5064701;28;20249;-82
2021/03/02 09:42:41;;;;;;;26.08;19.83;;;13.40;80.80;;;;;;5058002;28;20204;-81
2021/03/02 09:45:35;;;;;;;23.77;19.05;;;13.90;79.40;;;;;;5080287;28;20230;-81
2021/03/02 09:48:06;;;;;;;25.23;19.15;;;14.10;78.20;;;;;;5081919;28;20227;-79
2021/03/02 09:50:50;;;;;;;20.90;18.73;;;14.50;77.30;;;;;;5069279;28;20690;-82
2021/03/02 09:53:18;;;;;;;24.40;19.05;;;14.10;77.70;;;;;;5071677;28;20207;-82
2021/03/02 09:55:59;;;;;;;22.17;17.83;;;14.80;77.90;;;;;;5070852;28;20214;-83
2021/03/02 09:58:27;;;;;;;19.30;15.43;;;15.00;76.00;;;;;;5067785;28;20219;-84
2021/03/02 10:00:59;;;;;;;32.95;19.20;;;15.00;77.00;;;;;;5079430;28;20217;-81
2021/03/02 10:03:27;;;;;;;26.55;16.60;;;14.50;75.50;;;;;;5069321;28;20203;-82
2021/03/02 10:05:56;;;;;;;25.75;16.00;;;14.20;77.60;;;;;;5067691;28;20203;-81
2021/03/02 10:08:28;;;;;;;28.05;17.27;;;13.90;78.50;;;;;;5062985;28;20238;-83
2021/03/02 10:11:01;;;;;;;25.58;15.73;;;13.90;79.20;;;;;;5077888;28;20360;-81
2021/03/02 10:13:35;;;;;;;18.55;15.52;;;13.50;79.90;;;;;;5069543;28;20216;-82
2021/03/02 10:16:16;;;;;;;20.13;16.13;;;12.40;82.10;;;;;;5048992;28;20213;-83
2021/03/02 10:19:06;;;;;;;17.75;14.50;;;12.10;84.80;;;;;;5060666;28;20221;-82
2021/03/02 10:21:52;;;;;;;21.75;16.67;;;11.40;87.30;;;;;;5044982;28;20423;-83
2021/03/02 10:24:22;;;;;;;21.25;17.48;;;11.50;88.70;;;;;;5045655;28;20241;-83
2021/03/02 10:26:56;;;;;;;22.27;17.98;;;11.70;88.70;;;;;;5051102;28;20219;-82
2021/03/02 10:29:29;;;;;;;26.08;17.27;;;11.60;89.00;;;;;;5053465;28;20203;-82
2021/03/02 10:31:58;;;;;;;18.55;15.55;;;11.70;89.10;;;;;;5042200;28;20227;-83
2021/03/02 10:34:36;;;;;;;24.92;17.25;;;11.40;90.00;;;;;;5042684;28;20203;-83
2021/03/02 10:37:16;;;;;;;16.88;14.02;;;11.30;90.10;;;;;;5046451;28;20232;-84
2021/03/02 10:42:33;;;;;;;17.50;14.15;;;12.00;90.00;;;;;;5035218;28;20207;-83
2021/03/02 10:45:07;;;;;;;18.45;15.32;;;12.10;89.50;;;;;;5050804;28;20210;-81
2021/03/02 10:47:44;;;;;;;16.02;14.20;;;12.00;90.00;;;;;;5028590;28;20242;-84
2021/03/02 10:50:46;;;;;;;37.63;18.73;;;12.10;89.80;;;;;;5023455;28;20601;-85
2021/03/02 10:53:14;;;;;;;19.27;15.45;;;11.20;91.10;;;;;;5053675;28;20294;-83
2021/03/02 10:55:41;;;;;;;16.45;14.43;;;11.00;91.90;;;;;;5044840;28;20204;-82
2021/03/02 10:58:08;;;;;;;19.75;16.25;;;10.80;92.20;;;;;;5046765;28;20262;-83
2021/03/02 11:00:35;;;;;;;20.42;16.45;;;10.50;93.10;;;;;;5057949;28;20209;-82
2021/03/02 11:03:03;;;;;;;18.50;13.65;;;10.30;93.50;;;;;;5047995;28;20200;-83
2021/03/02 11:05:29;;;;;;;17.90;15.40;;;10.10;94.10;;;;;;5063396;28;20191;-81
2021/03/02 11:07:56;;;;;;;17.95;14.98;;;10.00;95.20;;;;;;5048096;28;20231;-83
2021/03/02 11:10:23;;;;;;;20.63;14.43;;;10.00;95.00;;;;;;5047089;28;20661;-81
2021/03/02 11:12:49;;;;;;;21.25;13.50;;;10.00;95.30;;;;;;5048119;28;20222;-84
2021/03/02 11:15:16;;;;;;;24.83;15.80;;;9.90;96.20;;;;;;5053451;28;20207;-81
2021/03/02 11:17:47;;;;;;;15.52;12.93;;;9.80;96.60;;;;;;5056445;28;20231;-81
2021/03/02 11:20:14;;;;;;;20.20;15.25;;;9.60;97.10;;;;;;5054944;28;20212;-82
2021/03/02 11:22:48;;;;;;;14.70;12.88;;;9.70;97.50;;;;;;5054336;28;20211;-82
2021/03/02 11:25:29;;;;;;;16.63;14.45;;;9.50;98.30;;;;;;5057889;28;20201;-82
2021/03/02 11:28:03;;;;;;;15.77;13.57;;;9.40;98.00;;;;;;5060782;28;20223;-82
2021/03/02 11:30:33;;;;;;;18.42;13.60;;;9.30;98.30;;;;;;5066227;28;20206;-84
2021/03/02 11:33:04;;;;;;;17.85;14.60;;;9.20;98.40;;;;;;5065470;28;20259;-83
2021/03/02 11:35:32;;;;;;;19.40;12.98;;;9.40;98.80;;;;;;5060700;28;20221;-81
2021/03/02 11:38:14;;;;;;;16.45;12.70;;;9.30;99.60;;;;;;5052152;28;20302;-82
2021/03/02 11:40:45;;;;;;;16.67;14.30;;;9.40;99.90;;;;;;5048067;28;20666;-81
2021/03/02 11:43:14;;;;;;;20.38;13.55;;;9.60;99.90;;;;;;5052261;28;20208;-81
2021/03/02 11:45:44;;;;;;;15.30;13.70;;;9.60;99.70;;;;;;5060162;28;20208;-84
2021/03/02 11:48:16;;;;;;;16.23;12.93;;;9.50;99.60;;;;;;5067030;28;20311;-81
2021/03/02 11:50:44;;;;;;;15.07;12.57;;;9.50;99.50;;;;;;5055986;28;20260;-83
2021/03/02 11:53:11;;;;;;;17.77;12.77;;;9.60;99.70;;;;;;5062099;28;20235;-83
2021/03/02 11:55:40;;;;;;;19.90;13.30;;;9.10;99.90;;;;;;5049534;28;20218;-81
2021/03/02 11:58:11;;;;;;;16.65;13.43;;;8.80;99.90;;;;;;5048688;28;20281;-81
2021/03/02 12:00:39;;;;;;;14.63;12.52;;;8.90;99.90;;;;;;5059785;28;20245;-81
2021/03/02 12:03:09;;;;;;;18.23;13.77;;;9.10;99.90;;;;;;5049667;28;20247;-83
2021/03/02 12:05:40;;;;;;;15.75;12.90;;;9.10;99.90;;;;;;5050768;28;20231;-81
2021/03/02 12:08:09;;;;;;;18.20;13.80;;;9.20;99.90;;;;;;5048648;28;20287;-81
2021/03/02 12:10:46;;;;;;;20.33;14.15;;;9.30;99.90;;;;;;5060102;28;20199;-83
2021/03/02 12:13:23;;;;;;;19.70;14.00;;;9.40;99.90;;;;;;5058921;28;20250;-82
2021/03/02 12:15:50;;;;;;;16.23;14.50;;;9.30;99.90;;;;;;5051894;28;20284;-83
2021/03/02 12:18:32;;;;;;;15.50;13.48;;;9.40;99.90;;;;;;5054905;28;20281;-83
2021/03/02 12:21:00;;;;;;;16.15;13.80;;;9.20;99.90;;;;;;5047196;28;20200;-83
2021/03/02 12:23:35;;;;;;;18.67;13.77;;;9.20;99.90;;;;;;5044591;28;20715;-84
2021/03/02 12:26:01;;;;;;;17.33;14.70;;;9.40;99.90;;;;;;5043560;28;20852;-83
2021/03/02 12:28:28;;;;;;;18.02;12.57;;;9.50;99.90;;;;;;5048287;28;20228;-82
2021/03/02 12:30:54;;;;;;;18.42;14.48;;;9.60;99.90;;;;;;5053099;28;20231;-82
2021/03/02 12:33:24;;;;;;;15.07;12.63;;;9.70;99.90;;;;;;5045719;28;20211;-84
2021/03/02 12:35:51;;;;;;;17.27;13.38;;;9.80;99.90;;;;;;5045334;28;20196;-82
2021/03/02 12:38:19;;;;;;;14.18;12.07;;;9.90;99.90;;;;;;5053962;28;20442;-82
2021/03/02 12:40:53;;;;;;;18.42;14.75;;;10.10;99.90;;;;;;5045024;28;20200;-83
2021/03/02 12:43:23;;;;;;;15.45;13.18;;;10.20;99.90;;;;;;5053012;28;20197;-81
2021/03/02 12:45:49;;;;;;;18.38;13.23;;;10.40;99.90;;;;;;5057254;28;20208;-83
2021/03/02 12:48:16;;;;;;;17.13;12.35;;;10.50;99.90;;;;;;5052015;28;20248;-83
2021/03/02 12:50:43;;;;;;;18.48;13.35;;;10.60;99.90;;;;;;5045017;28;20206;-82
2021/03/02 12:53:10;;;;;;;26.27;15.10;;;10.70;99.90;;;;;;5066913;28;20262;-83
2021/03/02 12:55:40;;;;;;;16.25;12.90;;;10.70;99.90;;;;;;5057567;28;20200;-83
2021/03/02 12:58:07;;;;;;;17.02;14.23;;;10.80;99.90;;;;;;5057694;28;20288;-84
2021/03/02 13:00:34;;;;;;;18.00;13.48;;;10.80;99.90;;;;;;5064710;28;20201;-83
2021/03/02 13:03:01;;;;;;;14.50;12.38;;;10.80;99.90;;;;;;5057621;28;20274;-82
2021/03/02 13:05:28;;;;;;;15.95;13.20;;;10.90;99.90;;;;;;5056519;28;20216;-84
2021/03/02 13:07:56;;;;;;;17.48;13.43;;;10.90;99.90;;;;;;5049444;28;20232;-84
2021/03/02 13:10:31;;;;;;;20.33;14.57;;;10.90;99.90;;;;;;5057145;28;20263;-83
2021/03/02 13:13:01;;;;;;;15.93;12.90;;;11.10;99.90;;;;;;5053055;28;20685;-82
2021/03/02 13:15:42;;;;;;;17.38;14.48;;;11.00;99.90;;;;;;5050845;28;20235;-83
2021/03/02 13:18:22;;;;;;;17.92;14.15;;;11.10;99.90;;;;;;5046465;28;20258;-83
2021/03/02 13:20:49;;;;;;;17.52;14.02;;;11.20;99.90;;;;;;5063650;28;20208;-84
2021/03/02 13:23:16;;;;;;;17.55;14.35;;;11.30;99.90;;;;;;5053478;28;20210;-83
2021/03/02 13:25:42;;;;;;;15.18;12.77;;;11.50;99.90;;;;;;5047327;28;20209;-85
2021/03/02 13:28:10;;;;;;;16.38;14.55;;;11.60;99.80;;;;;;5046354;28;20299;-84
2021/03/02 13:30:38;;;;;;;14.80;13.20;;;11.70;99.80;;;;;;5059619;28;20743;-83
2021/03/02 13:33:11;;;;;;;16.55;13.52;;;11.80;99.30;;;;;;5046329;28;20237;-84
2021/03/02 13:35:39;;;;;;;18.50;14.55;;;11.80;99.30;;;;;;5046012;28;20297;-84
2021/03/02 13:38:08;;;;;;;15.00;13.38;;;11.80;99.30;;;;;;5051738;28;20225;-84
2021/03/02 13:40:34;;;;;;;14.82;12.70;;;12.00;99.40;;;;;;5051270;28;20199;-84
2021/03/02 13:43:02;;;;;;;16.23;12.30;;;12.10;98.30;;;;;;5052373;28;20214;-81
2021/03/02 13:45:31;;;;;;;17.35;12.35;;;12.20;98.30;;;;;;5062948;28;20219;-81
2021/03/02 13:47:58;;;;;;;16.38;14.02;;;12.40;97.90;;;;;;5061313;28;20229;-82
2021/03/02 13:50:26;;;;;;;18.17;15.23;;;12.50;98.30;;;;;;5050444;28;20222;-82
2021/03/02 13:52:53;;;;;;;19.23;13.43;;;12.50;98.20;;;;;;5044921;28;20227;-82
2021/03/02 13:55:22;;;;;;;15.52;13.65;;;12.60;98.20;;;;;;5048008;28;20205;-82
2021/03/02 13:57:50;;;;;;;16.45;14.05;;;12.70;98.20;;;;;;5053932;28;20226;-83
2021/03/02 14:00:49;;;;;;;17.65;14.90;;;12.70;98.10;;;;;;5054010;28;20211;-82
2021/03/02 14:03:17;;;;;;;15.55;12.70;;;12.90;98.10;;;;;;5038246;28;20209;-84
2021/03/02 14:06:27;;;;;;;17.27;13.57;;;13.00;98.00;;;;;;5058789;28;20226;-80
2021/03/02 14:14:36;;;;;;;17.48;14.60;;;13.10;97.80;;;;;;5058764;28;20206;-83
2021/03/02 14:17:03;;;;;;;17.05;12.15;;;13.20;97.70;;;;;;5046107;28;20315;-82
2021/03/02 14:19:30;;;;;;;17.80;14.25;;;13.30;97.60;;;;;;5047418;28;20672;-84
2021/03/02 14:21:58;;;;;;;20.13;16.00;;;13.30;97.30;;;;;;5050882;28;20286;-83
2021/03/02 14:24:41;;;;;;;;;;;;;;;;;;;;;
2021/03/02 14:27:23;;;;;;;16.33;13.48;;;13.40;96.80;;;;;;5052722;28;20245;-84
2021/03/02 14:29:50;;;;;;;15.20;12.68;;;13.40;96.70;;;;;;5054299;28;20203;-81
2021/03/02 14:32:21;;;;;;;17.00;14.55;;;13.40;96.70;;;;;;5065474;28;20224;-81
2021/03/02 14:34:49;;;;;;;21.48;14.32;;;13.50;96.70;;;;;;5049436;28;20202;-83
2021/03/02 14:37:16;;;;;;;14.65;13.18;;;13.60;96.40;;;;;;5046275;28;20234;-83
2021/03/02 14:39:43;;;;;;;21.25;14.82;;;13.60;96.30;;;;;;5054673;28;20194;-82
2021/03/02 14:42:11;;;;;;;14.38;12.52;;;13.70;96.20;;;;;;5059991;28;20200;-82